St Solene — FVDG — position and weather

sailwx.info

Track history (hours):
 
Tides and Currents Weather Stations Pressure Air Temp Water Temp Dewpoint Dewpoint Depression Visibility Wind Speed Wind Dir Waves Ship Positions

St Solene

Last reported at 2016-Aug-23 20:34 UTC. Time now 2016-Aug-24 01:40 UTC.
Position N 42°32' E 009°34'.

Length 104 m; draft 6.2 m.

Type: Tanker. MMSI: 226302000.

Date/timePositionNaut miles runAvg speedWind from/ knotsBaromVisibWave heightAir tempDewpointWater temp
2016-Aug-23 20:34N 42°32' E 009°34'2 1.7
2016-Aug-23 19:30N 42°32' E 009°37'6 6.0
2016-Aug-23 18:33N 42°37' E 009°40'2613.0
2016-Aug-23 16:33N 43°03' E 009°36'1212.3
2016-Aug-23 15:33N 43°13' E 009°26'1311.9
2016-Aug-23 14:29N 43°13' E 009°09'13812.6
2016-Aug-23 03:32N 42°46' E 006°03'3712.4
2016-Aug-23 00:32N 42°56' E 005°15'2211.2
2016-Aug-22 22:33N 43°15' E 004°60'1110.9
2016-Aug-22 21:33N 43°25' E 004°53'0 0.4
2016-Aug-22 20:32N 43°26' E 004°54'0 0.0
2016-Aug-22 19:32N 43°26' E 004°54'0 0.0
2016-Aug-22 18:32N 43°26' E 004°54'0 0.0
2016-Aug-22 17:32N 43°26' E 004°54'0 0.0
2016-Aug-22 06:05N 43°26' E 004°54'0 0.0
2016-Aug-22 04:29N 43°26' E 004°54'0 0.0
2016-Aug-22 03:29N 43°26' E 004°54'0 0.0
2016-Aug-22 02:20N 43°26' E 004°54'0 0.0
2016-Aug-22 01:26N 43°26' E 004°54'0 0.0
2016-Aug-22 00:32N 43°26' E 004°54'0 0.0
2016-Aug-21 23:32N 43°26' E 004°54'0 0.0
2016-Aug-21 22:17N 43°26' E 004°54'0 0.0
2016-Aug-21 21:32N 43°26' E 004°54'0 0.2
2016-Aug-21 20:33N 43°26' E 004°53'2 2.1
2016-Aug-21 19:34N 43°25' E 004°56'0 0.0
2016-Aug-21 18:33N 43°25' E 004°56'0 0.0
2016-Aug-21 17:33N 43°25' E 004°56'0 0.0
2016-Aug-21 16:33N 43°25' E 004°56'0 0.0
2016-Aug-21 15:33N 43°25' E 004°56'7 6.6
2016-Aug-21 14:33N 43°19' E 004°60'1010.4
2016-Aug-21 13:34N 43°08' E 004°59'3611.8
2016-Aug-21 10:31N 43°03' E 004°11'7 0.3
2016-Aug-20 09:32N 43°04' E 004°21'1212.0
2016-Aug-20 08:32N 43°06' E 004°37'1311.9
2016-Aug-20 07:24N 43°07' E 004°56'8 9.8
2016-Aug-20 06:33N 43°15' E 005°00'9 9.4
2016-Aug-20 05:33N 43°24' E 004°60'0 0.2
2016-Aug-20 04:32N 43°24' E 004°60'0 0.0
2016-Aug-20 03:32N 43°24' E 004°60'0 0.0
2016-Aug-20 02:29N 43°24' E 004°60'0 0.0
2016-Aug-20 01:32N 43°24' E 004°60'0 0.0
2016-Aug-20 00:32N 43°24' E 004°60'0 0.0
2016-Aug-19 23:32N 43°24' E 004°60'0 0.0
2016-Aug-19 22:32N 43°24' E 004°60'0 0.0
2016-Aug-19 21:32N 43°24' E 004°60'0 0.0
2016-Aug-19 20:32N 43°24' E 004°60'0 0.0
2016-Aug-19 19:32N 43°24' E 004°60'0 0.0
2016-Aug-19 18:32N 43°24' E 004°60'0 0.0
2016-Aug-19 17:32N 43°24' E 004°60'0 0.0
2016-Aug-19 16:32N 43°24' E 004°60'0 0.0
2016-Aug-19 15:32N 43°24' E 004°60'0 0.0
2016-Aug-19 14:32N 43°24' E 004°60'0 0.0
2016-Aug-19 13:32N 43°24' E 004°60'0 0.0
2016-Aug-19 12:32N 43°24' E 004°60'0 0.0
2016-Aug-19 11:32N 43°24' E 004°60'0 0.0
2016-Aug-19 10:32N 43°24' E 004°60'0 0.0
2016-Aug-19 09:32N 43°24' E 004°60'0 0.0
2016-Aug-19 08:32N 43°24' E 004°60'0 0.0
2016-Aug-19 07:29N 43°24' E 004°60'0 0.0
2016-Aug-19 06:32N 43°24' E 004°60'0 0.0
2016-Aug-19 05:32N 43°24' E 004°60'0 0.0
2016-Aug-19 04:32N 43°24' E 004°60'0 0.0
2016-Aug-19 03:32N 43°24' E 004°60'0 0.0
2016-Aug-19 02:32N 43°24' E 004°60'0 0.0
2016-Aug-19 01:29N 43°24' E 004°60'0 0.0
2016-Aug-19 00:29N 43°24' E 004°60'0 0.0
2016-Aug-18 23:29N 43°24' E 004°60'0 0.0
2016-Aug-18 22:32N 43°24' E 004°60'1 1.0
2016-Aug-18 21:34N 43°24' E 004°58'0 0.0
2016-Aug-18 20:30N 43°24' E 004°58'0 0.0
2016-Aug-18 19:33N 43°24' E 004°58'0 0.0
2016-Aug-18 18:33N 43°24' E 004°58'0 0.0
2016-Aug-18 17:33N 43°24' E 004°58'5 4.7
2016-Aug-18 16:33N 43°19' E 004°59'1010.4
2016-Aug-18 15:33N 43°09' E 004°59'5 0.1
2016-Aug-17 04:31N 43°13' E 005°00'1010.7
2016-Aug-17 03:33N 43°23' E 004°59'1 0.9
2016-Aug-17 02:32N 43°24' E 004°60'0 0.0
2016-Aug-17 01:29N 43°24' E 004°60'0 0.0
2016-Aug-17 00:29N 43°24' E 004°60'0 0.0
2016-Aug-16 23:32N 43°24' E 004°60'0 0.0
2016-Aug-16 22:32N 43°24' E 004°60'0 0.0
2016-Aug-16 21:32N 43°24' E 004°60'0 0.0
2016-Aug-16 20:32N 43°24' E 004°60'0 0.0
2016-Aug-16 19:29N 43°24' E 004°60'0 0.0
2016-Aug-16 18:32N 43°24' E 004°60'0 0.0
2016-Aug-16 17:29N 43°24' E 004°60'0 0.0
2016-Aug-16 16:32N 43°24' E 004°60'0 0.0
2016-Aug-16 15:32N 43°24' E 004°60'0 0.0
2016-Aug-16 14:32N 43°24' E 004°60'0 0.0
2016-Aug-16 13:32N 43°24' E 004°60'0 0.0
2016-Aug-16 12:32N 43°24' E 004°60'0 0.0
2016-Aug-16 11:32N 43°24' E 004°60'0 0.0
2016-Aug-16 10:32N 43°24' E 004°60'0 0.0
2016-Aug-16 09:32N 43°24' E 004°60'0 0.0
2016-Aug-16 08:29N 43°24' E 004°60'0 0.0
2016-Aug-16 07:32N 43°24' E 004°60'0 0.0
2016-Aug-16 06:32N 43°24' E 004°60'0 0.0
2016-Aug-16 04:32N 43°24' E 004°60'0 0.0
2016-Aug-16 03:32N 43°24' E 004°60'0 0.2
2016-Aug-16 02:32N 43°24' E 004°59'2 2.1
2016-Aug-16 01:34N 43°24' E 004°57'0 0.0
2016-Aug-16 00:32N 43°24' E 004°57'0 0.0
2016-Aug-15 23:32N 43°24' E 004°57'0 0.0
2016-Aug-15 22:32N 43°24' E 004°57'0 0.0
2016-Aug-15 21:32N 43°24' E 004°57'0 0.0
2016-Aug-15 20:32N 43°24' E 004°57'0 0.1
2016-Aug-15 19:32N 43°24' E 004°57'0 0.0
2016-Aug-15 18:32N 43°24' E 004°57'0 0.0
2016-Aug-15 17:32N 43°24' E 004°57'0 0.0
2016-Aug-15 16:32N 43°24' E 004°57'0 0.0
2016-Aug-15 15:32N 43°24' E 004°57'0 0.0
2016-Aug-15 14:32N 43°24' E 004°57'0 0.0
2016-Aug-15 13:29N 43°24' E 004°57'0 0.0
2016-Aug-15 12:32N 43°24' E 004°57'0 0.0
2016-Aug-15 11:32N 43°24' E 004°57'0 0.0
2016-Aug-15 10:32N 43°24' E 004°57'0 0.0
2016-Aug-15 09:29N 43°24' E 004°57'0 0.0
2016-Aug-15 08:32N 43°24' E 004°57'0 0.0
2016-Aug-15 07:29N 43°24' E 004°57'0 0.0
2016-Aug-15 06:32N 43°24' E 004°57'0 0.0
2016-Aug-15 04:32N 43°24' E 004°57'0 0.0
2016-Aug-15 03:32N 43°24' E 004°57'0 0.0
2016-Aug-15 02:32N 43°24' E 004°57'0 0.0
2016-Aug-15 01:32N 43°24' E 004°57'0 0.0
2016-Aug-15 00:32N 43°24' E 004°57'0 0.0
2016-Aug-14 23:32N 43°24' E 004°57'0 0.0
2016-Aug-14 22:32N 43°24' E 004°57'0 0.0
2016-Aug-14 21:32N 43°24' E 004°57'0 0.0
2016-Aug-14 20:32N 43°24' E 004°57'0 0.0
2016-Aug-14 19:32N 43°24' E 004°57'0 0.0
2016-Aug-14 18:33N 43°24' E 004°57'0 0.0
2016-Aug-14 17:33N 43°24' E 004°57'0 0.1
2016-Aug-14 16:33N 43°24' E 004°57'7 7.3
2016-Aug-14 15:33N 43°17' E 004°60'1312.8
2016-Aug-14 14:34N 43°05' E 005°06'1211.9
2016-Aug-14 13:34N 42°58' E 005°18'1313.4
2016-Aug-14 12:33N 42°53' E 005°36'1513.4
2016-Aug-14 11:24N 42°48' E 005°55'1313.6
2016-Aug-14 10:26N 42°44' E 006°12'2813.8
2016-Aug-14 08:26N 42°49' E 006°49'1213.2
2016-Aug-14 07:33N 42°52' E 007°05'1010.4
2016-Aug-14 06:34N 42°55' E 007°18'2612.9
2016-Aug-14 04:33N 43°00' E 007°53'1312.7
2016-Aug-14 03:32N 43°03' E 008°10'1313.1
2016-Aug-14 02:33N 43°06' E 008°27'1313.2
2016-Aug-14 01:33N 43°09' E 008°45'1313.1
2016-Aug-14 00:33N 43°12' E 009°03'1312.9
2016-Aug-13 23:34N 43°14' E 009°20'1212.3
2016-Aug-13 22:33N 43°10' E 009°35'1413.7
2016-Aug-13 21:33N 42°56' E 009°38'  
Track history (hours):
 
Tides and Currents Weather Stations Pressure Air Temp Water Temp Dewpoint Dewpoint Depression Visibility Wind Speed Wind Dir Waves Ship Positions

St Solene

Last reported at 2016-Aug-23 20:34 UTC. Time now 2016-Aug-24 01:40 UTC.
Position N 42°32' E 009°34'.

Length 104 m; draft 6.2 m.

Type: Tanker. MMSI: 226302000.

Date/timePositionNaut miles runAvg speedWind from/ knotsBaromVisibWave heightAir tempDewpointWater temp
2016-Aug-23 20:34N 42°32' E 009°34'2 1.7
2016-Aug-23 19:30N 42°32' E 009°37'6 6.0
2016-Aug-23 18:33N 42°37' E 009°40'2613.0
2016-Aug-23 16:33N 43°03' E 009°36'1212.3
2016-Aug-23 15:33N 43°13' E 009°26'1311.9
2016-Aug-23 14:29N 43°13' E 009°09'13812.6
2016-Aug-23 03:32N 42°46' E 006°03'3712.4
2016-Aug-23 00:32N 42°56' E 005°15'2211.2
2016-Aug-22 22:33N 43°15' E 004°60'1110.9
2016-Aug-22 21:33N 43°25' E 004°53'0 0.4
2016-Aug-22 20:32N 43°26' E 004°54'0 0.0
2016-Aug-22 19:32N 43°26' E 004°54'0 0.0
2016-Aug-22 18:32N 43°26' E 004°54'0 0.0
2016-Aug-22 17:32N 43°26' E 004°54'0 0.0
2016-Aug-22 06:05N 43°26' E 004°54'0 0.0
2016-Aug-22 04:29N 43°26' E 004°54'0 0.0
2016-Aug-22 03:29N 43°26' E 004°54'0 0.0
2016-Aug-22 02:20N 43°26' E 004°54'0 0.0
2016-Aug-22 01:26N 43°26' E 004°54'0 0.0
2016-Aug-22 00:32N 43°26' E 004°54'0 0.0
2016-Aug-21 23:32N 43°26' E 004°54'0 0.0
2016-Aug-21 22:17N 43°26' E 004°54'0 0.0
2016-Aug-21 21:32N 43°26' E 004°54'0 0.2
2016-Aug-21 20:33N 43°26' E 004°53'2 2.1
2016-Aug-21 19:34N 43°25' E 004°56'0 0.0
2016-Aug-21 18:33N 43°25' E 004°56'0 0.0
2016-Aug-21 17:33N 43°25' E 004°56'0 0.0
2016-Aug-21 16:33N 43°25' E 004°56'0 0.0
2016-Aug-21 15:33N 43°25' E 004°56'7 6.6
2016-Aug-21 14:33N 43°19' E 004°60'1010.4
2016-Aug-21 13:34N 43°08' E 004°59'3611.8
2016-Aug-21 10:31N 43°03' E 004°11'7 0.3
2016-Aug-20 09:32N 43°04' E 004°21'1212.0
2016-Aug-20 08:32N 43°06' E 004°37'1311.9
2016-Aug-20 07:24N 43°07' E 004°56'8 9.8
2016-Aug-20 06:33N 43°15' E 005°00'9 9.4
2016-Aug-20 05:33N 43°24' E 004°60'0 0.2
2016-Aug-20 04:32N 43°24' E 004°60'0 0.0
2016-Aug-20 03:32N 43°24' E 004°60'0 0.0
2016-Aug-20 02:29N 43°24' E 004°60'0 0.0
2016-Aug-20 01:32N 43°24' E 004°60'0 0.0
2016-Aug-20 00:32N 43°24' E 004°60'0 0.0
2016-Aug-19 23:32N 43°24' E 004°60'0 0.0
2016-Aug-19 22:32N 43°24' E 004°60'0 0.0
2016-Aug-19 21:32N 43°24' E 004°60'0 0.0
2016-Aug-19 20:32N 43°24' E 004°60'0 0.0
2016-Aug-19 19:32N 43°24' E 004°60'0 0.0
2016-Aug-19 18:32N 43°24' E 004°60'0 0.0
2016-Aug-19 17:32N 43°24' E 004°60'0 0.0
2016-Aug-19 16:32N 43°24' E 004°60'0 0.0
2016-Aug-19 15:32N 43°24' E 004°60'0 0.0
2016-Aug-19 14:32N 43°24' E 004°60'0 0.0
2016-Aug-19 13:32N 43°24' E 004°60'0 0.0
2016-Aug-19 12:32N 43°24' E 004°60'0 0.0
2016-Aug-19 11:32N 43°24' E 004°60'0 0.0
2016-Aug-19 10:32N 43°24' E 004°60'0 0.0
2016-Aug-19 09:32N 43°24' E 004°60'0 0.0
2016-Aug-19 08:32N 43°24' E 004°60'0 0.0
2016-Aug-19 07:29N 43°24' E 004°60'0 0.0
2016-Aug-19 06:32N 43°24' E 004°60'0 0.0
2016-Aug-19 05:32N 43°24' E 004°60'0 0.0
2016-Aug-19 04:32N 43°24' E 004°60'0 0.0
2016-Aug-19 03:32N 43°24' E 004°60'0 0.0
2016-Aug-19 02:32N 43°24' E 004°60'0 0.0
2016-Aug-19 01:29N 43°24' E 004°60'0 0.0
2016-Aug-19 00:29N 43°24' E 004°60'0 0.0
2016-Aug-18 23:29N 43°24' E 004°60'0 0.0
2016-Aug-18 22:32N 43°24' E 004°60'1 1.0
2016-Aug-18 21:34N 43°24' E 004°58'0 0.0
2016-Aug-18 20:30N 43°24' E 004°58'0 0.0
2016-Aug-18 19:33N 43°24' E 004°58'0 0.0
2016-Aug-18 18:33N 43°24' E 004°58'0 0.0
2016-Aug-18 17:33N 43°24' E 004°58'5 4.7
2016-Aug-18 16:33N 43°19' E 004°59'1010.4
2016-Aug-18 15:33N 43°09' E 004°59'5 0.1
2016-Aug-17 04:31N 43°13' E 005°00'1010.7
2016-Aug-17 03:33N 43°23' E 004°59'1 0.9
2016-Aug-17 02:32N 43°24' E 004°60'0 0.0
2016-Aug-17 01:29N 43°24' E 004°60'0 0.0
2016-Aug-17 00:29N 43°24' E 004°60'0 0.0
2016-Aug-16 23:32N 43°24' E 004°60'0 0.0
2016-Aug-16 22:32N 43°24' E 004°60'0 0.0
2016-Aug-16 21:32N 43°24' E 004°60'0 0.0
2016-Aug-16 20:32N 43°24' E 004°60'0 0.0
2016-Aug-16 19:29N 43°24' E 004°60'0 0.0
2016-Aug-16 18:32N 43°24' E 004°60'0 0.0
2016-Aug-16 17:29N 43°24' E 004°60'0 0.0
2016-Aug-16 16:32N 43°24' E 004°60'0 0.0
2016-Aug-16 15:32N 43°24' E 004°60'0 0.0
2016-Aug-16 14:32N 43°24' E 004°60'0 0.0
2016-Aug-16 13:32N 43°24' E 004°60'0 0.0
2016-Aug-16 12:32N 43°24' E 004°60'0 0.0
2016-Aug-16 11:32N 43°24' E 004°60'0 0.0
2016-Aug-16 10:32N 43°24' E 004°60'0 0.0
2016-Aug-16 09:32N 43°24' E 004°60'0 0.0
2016-Aug-16 08:29N 43°24' E 004°60'0 0.0
2016-Aug-16 07:32N 43°24' E 004°60'0 0.0
2016-Aug-16 06:32N 43°24' E 004°60'0 0.0
2016-Aug-16 04:32N 43°24' E 004°60'0 0.0
2016-Aug-16 03:32N 43°24' E 004°60'0 0.2
2016-Aug-16 02:32N 43°24' E 004°59'2 2.1
2016-Aug-16 01:34N 43°24' E 004°57'0 0.0
2016-Aug-16 00:32N 43°24' E 004°57'0 0.0
2016-Aug-15 23:32N 43°24' E 004°57'0 0.0
2016-Aug-15 22:32N 43°24' E 004°57'0 0.0
2016-Aug-15 21:32N 43°24' E 004°57'0 0.0
2016-Aug-15 20:32N 43°24' E 004°57'0 0.1
2016-Aug-15 19:32N 43°24' E 004°57'0 0.0
2016-Aug-15 18:32N 43°24' E 004°57'0 0.0
2016-Aug-15 17:32N 43°24' E 004°57'0 0.0
2016-Aug-15 16:32N 43°24' E 004°57'0 0.0
2016-Aug-15 15:32N 43°24' E 004°57'0 0.0
2016-Aug-15 14:32N 43°24' E 004°57'0 0.0
2016-Aug-15 13:29N 43°24' E 004°57'0 0.0
2016-Aug-15 12:32N 43°24' E 004°57'0 0.0
2016-Aug-15 11:32N 43°24' E 004°57'0 0.0
2016-Aug-15 10:32N 43°24' E 004°57'0 0.0
2016-Aug-15 09:29N 43°24' E 004°57'0 0.0
2016-Aug-15 08:32N 43°24' E 004°57'0 0.0
2016-Aug-15 07:29N 43°24' E 004°57'0 0.0
2016-Aug-15 06:32N 43°24' E 004°57'0 0.0
2016-Aug-15 04:32N 43°24' E 004°57'0 0.0
2016-Aug-15 03:32N 43°24' E 004°57'0 0.0
2016-Aug-15 02:32N 43°24' E 004°57'0 0.0
2016-Aug-15 01:32N 43°24' E 004°57'0 0.0
2016-Aug-15 00:32N 43°24' E 004°57'0 0.0
2016-Aug-14 23:32N 43°24' E 004°57'0 0.0
2016-Aug-14 22:32N 43°24' E 004°57'0 0.0
2016-Aug-14 21:32N 43°24' E 004°57'0 0.0
2016-Aug-14 20:32N 43°24' E 004°57'0 0.0
2016-Aug-14 19:32N 43°24' E 004°57'0 0.0
2016-Aug-14 18:33N 43°24' E 004°57'0 0.0
2016-Aug-14 17:33N 43°24' E 004°57'0 0.1
2016-Aug-14 16:33N 43°24' E 004°57'7 7.3
2016-Aug-14 15:33N 43°17' E 004°60'1312.8
2016-Aug-14 14:34N 43°05' E 005°06'1211.9
2016-Aug-14 13:34N 42°58' E 005°18'1313.4
2016-Aug-14 12:33N 42°53' E 005°36'1513.4
2016-Aug-14 11:24N 42°48' E 005°55'1313.6
2016-Aug-14 10:26N 42°44' E 006°12'2813.8
2016-Aug-14 08:26N 42°49' E 006°49'1213.2
2016-Aug-14 07:33N 42°52' E 007°05'1010.4
2016-Aug-14 06:34N 42°55' E 007°18'2612.9
2016-Aug-14 04:33N 43°00' E 007°53'1312.7
2016-Aug-14 03:32N 43°03' E 008°10'1313.1
2016-Aug-14 02:33N 43°06' E 008°27'1313.2
2016-Aug-14 01:33N 43°09' E 008°45'1313.1
2016-Aug-14 00:33N 43°12' E 009°03'1312.9
2016-Aug-13 23:34N 43°14' E 009°20'1212.3
2016-Aug-13 22:33N 43°10' E 009°35'1413.7
2016-Aug-13 21:33N 42°56' E 009°38'  

Dump ship's entire track history